createdAt,value
2022-09-15T00:01:27.213Z,15.34
2022-09-15T00:03:55.238Z,15.31
2022-09-15T00:06:23.255Z,15.29
2022-09-15T00:08:51.248Z,15.27
2022-09-15T00:11:25.969Z,15.24
2022-09-15T00:14:00.375Z,15.22
2022-09-15T00:16:31.131Z,15.21
2022-09-15T00:19:00.548Z,15.20
2022-09-15T00:21:32.059Z,15.19
2022-09-15T00:24:01.629Z,15.17
2022-09-15T00:26:31.403Z,15.14
2022-09-15T00:29:01.143Z,15.12
2022-09-15T00:31:30.901Z,15.12
2022-09-15T00:34:02.659Z,15.12
2022-09-15T00:36:31.284Z,15.12
2022-09-15T00:38:59.351Z,15.12
2022-09-15T00:41:27.439Z,15.12
2022-09-15T00:44:18.377Z,15.13
2022-09-15T00:47:09.403Z,15.13
2022-09-15T00:49:40.593Z,15.15
2022-09-15T00:52:37.681Z,15.15
2022-09-15T00:55:31.790Z,15.15
2022-09-15T00:57:59.659Z,15.14
2022-09-15T01:00:28.764Z,15.14
2022-09-15T01:02:58.056Z,15.15
2022-09-15T01:05:34.775Z,15.17
2022-09-15T01:08:16.431Z,15.15
2022-09-15T01:10:46.687Z,15.12
2022-09-15T01:13:15.178Z,15.08
2022-09-15T01:16:06.046Z,15.06
2022-09-15T01:18:51.848Z,15.05
2022-09-15T01:21:31.902Z,15.05
2022-09-15T01:24:15.074Z,15.04
2022-09-15T01:27:18.487Z,15.06
2022-09-15T01:29:51.978Z,15.06
2022-09-15T01:32:53.674Z,15.07
2022-09-15T01:35:48.772Z,15.07
2022-09-15T01:38:19.812Z,15.06
2022-09-15T01:40:59.103Z,15.05
2022-09-15T01:43:29.854Z,15.03
2022-09-15T01:46:00.372Z,15.00
2022-09-15T01:48:30.186Z,14.97
2022-09-15T01:51:02.477Z,14.97
2022-09-15T01:53:30.510Z,14.93
2022-09-15T01:56:06.948Z,14.90
2022-09-15T01:58:37.100Z,14.88
2022-09-15T02:02:13.658Z,14.88
2022-09-15T02:04:47.079Z,14.88
2022-09-15T02:07:39.154Z,14.86
2022-09-15T02:10:34.239Z,14.84
2022-09-15T02:13:18.044Z,14.84
2022-09-15T02:15:54.308Z,14.86
2022-09-15T02:18:48.963Z,14.88
2022-09-15T02:21:22.264Z,14.90
2022-09-15T02:23:57.219Z,14.92
2022-09-15T02:26:28.854Z,14.95
2022-09-15T02:29:00.479Z,14.99
2022-09-15T02:31:33.203Z,15.02
2022-09-15T02:34:07.829Z,15.08
2022-09-15T02:36:36.375Z,15.17
2022-09-15T02:39:08.246Z,15.26
2022-09-15T02:41:37.465Z,15.34
2022-09-15T02:44:08.655Z,15.38
2022-09-15T02:46:37.064Z,15.41
2022-09-15T02:49:05.042Z,15.47
2022-09-15T02:51:33.652Z,15.57
2022-09-15T02:54:02.096Z,15.69
2022-09-15T02:56:30.019Z,15.80
2022-09-15T02:58:58.057Z,15.91
2022-09-15T03:01:34.817Z,16.04
2022-09-15T03:04:04.167Z,16.10
2022-09-15T03:06:34.898Z,16.15
2022-09-15T03:09:07.142Z,16.22
2022-09-15T03:11:36.762Z,16.31
2022-09-15T03:14:06.595Z,16.39
2022-09-15T03:16:35.771Z,16.45
2022-09-15T03:19:04.773Z,16.52
2022-09-15T03:21:32.856Z,16.59
2022-09-15T03:24:01.054Z,16.62
2022-09-15T03:26:29.316Z,16.60
2022-09-15T03:28:57.237Z,16.57
2022-09-15T03:31:25.226Z,16.53
2022-09-15T03:33:56.066Z,16.45
2022-09-15T03:36:24.211Z,16.36
2022-09-15T03:38:52.829Z,16.25
2022-09-15T03:41:21.011Z,16.12
2022-09-15T03:43:48.873Z,16.00
2022-09-15T03:46:16.920Z,15.92
2022-09-15T03:48:45.353Z,15.88
2022-09-15T03:51:14.312Z,15.85
2022-09-15T03:53:42.979Z,15.82
2022-09-15T03:56:26.578Z,15.82
2022-09-15T03:58:54.695Z,15.83
2022-09-15T04:01:23.574Z,15.87
2022-09-15T04:03:51.764Z,16.02
2022-09-15T04:06:21.578Z,16.21
2022-09-15T04:08:51.034Z,16.39
2022-09-15T04:11:20.317Z,16.56
2022-09-15T04:13:49.152Z,16.73
2022-09-15T04:16:23.414Z,16.88
2022-09-15T04:18:55.571Z,17.06
2022-09-15T04:21:26.805Z,17.25
2022-09-15T04:23:55.030Z,17.42
2022-09-15T04:26:31.351Z,17.58
2022-09-15T04:29:03.877Z,17.73
2022-09-15T04:31:33.538Z,17.87
2022-09-15T04:34:01.827Z,18.01
2022-09-15T04:36:29.833Z,18.10
2022-09-15T04:38:58.319Z,18.19
2022-09-15T04:41:27.295Z,18.26
2022-09-15T04:43:55.595Z,18.32
2022-09-15T04:46:23.661Z,18.38
2022-09-15T04:48:52.230Z,18.43
2022-09-15T04:51:22.457Z,18.49
2022-09-15T04:53:52.122Z,18.53
2022-09-15T04:56:23.351Z,18.58
2022-09-15T04:59:02.520Z,18.55
2022-09-15T05:01:35.292Z,18.34
2022-09-15T05:04:04.336Z,18.17
2022-09-15T05:06:34.848Z,18.04
2022-09-15T05:09:09.727Z,17.95
2022-09-15T05:11:40.818Z,17.98
2022-09-15T05:14:11.188Z,18.09
2022-09-15T05:16:40.318Z,18.21
2022-09-15T05:19:11.349Z,18.32
2022-09-15T05:21:39.285Z,18.42
2022-09-15T05:24:07.489Z,18.50
2022-09-15T05:26:35.463Z,18.57
2022-09-15T05:29:03.407Z,18.60
2022-09-15T05:31:34.706Z,18.63
2022-09-15T05:34:05.446Z,18.64
2022-09-15T05:36:34.049Z,18.65
2022-09-15T05:39:02.169Z,18.65
2022-09-15T05:41:31.002Z,18.64
2022-09-15T05:43:59.331Z,18.60
2022-09-15T05:46:27.989Z,18.40
2022-09-15T05:48:58.055Z,18.12
2022-09-15T05:51:26.469Z,17.87
2022-09-15T05:53:54.373Z,17.68
2022-09-15T05:56:22.302Z,17.60
2022-09-15T05:58:50.279Z,17.55
2022-09-15T06:01:26.841Z,17.49
2022-09-15T06:03:56.377Z,17.42
2022-09-15T06:06:26.060Z,17.38
2022-09-15T06:08:58.517Z,17.37
2022-09-15T06:11:30.147Z,17.41
2022-09-15T06:14:03.441Z,17.48
2022-09-15T06:16:36.029Z,17.57
2022-09-15T06:19:04.249Z,17.71
2022-09-15T06:21:33.391Z,17.84
2022-09-15T06:24:04.557Z,17.95
2022-09-15T06:26:33.282Z,18.02
2022-09-15T06:29:02.938Z,18.09
2022-09-15T06:31:32.984Z,18.16
2022-09-15T06:34:01.759Z,18.24
2022-09-15T06:36:31.052Z,18.32
2022-09-15T06:38:59.202Z,18.44
2022-09-15T06:41:38.267Z,18.60
2022-09-15T06:44:15.016Z,18.78
2022-09-15T06:46:43.196Z,18.93
2022-09-15T06:49:11.231Z,19.05
2022-09-15T06:51:39.068Z,19.18
2022-09-15T06:54:07.180Z,19.34
2022-09-15T06:56:38.097Z,19.51
2022-09-15T06:59:06.719Z,19.65
2022-09-15T07:01:40.963Z,19.76
2022-09-15T07:04:09.859Z,19.85
2022-09-15T07:06:39.902Z,19.92
2022-09-15T07:09:08.489Z,19.98
2022-09-15T07:11:36.504Z,20.03
2022-09-15T07:14:05.225Z,20.10
2022-09-15T07:16:33.780Z,20.15
2022-09-15T07:19:03.729Z,20.18
2022-09-15T07:21:31.829Z,20.21
2022-09-15T07:24:02.699Z,20.25
2022-09-15T07:26:34.636Z,20.30
2022-09-15T07:29:05.540Z,20.36
2022-09-15T07:31:36.027Z,20.40
2022-09-15T07:34:04.860Z,20.43
2022-09-15T07:36:32.906Z,20.44
2022-09-15T07:39:00.899Z,20.46
2022-09-15T07:41:30.996Z,20.43
2022-09-15T07:44:00.578Z,20.39
2022-09-15T07:46:32.320Z,20.34
2022-09-15T07:49:03.209Z,20.29
2022-09-15T07:51:37.313Z,20.24
2022-09-15T07:54:10.807Z,20.19
2022-09-15T07:56:39.624Z,20.16
2022-09-15T07:59:08.177Z,20.15
2022-09-15T08:01:36.208Z,20.14
2022-09-15T08:04:04.046Z,20.13
2022-09-15T08:06:31.951Z,20.10
2022-09-15T08:09:01.003Z,20.05
2022-09-15T08:11:30.073Z,20.02
2022-09-15T08:14:02.588Z,20.00
2022-09-15T08:16:31.068Z,19.99
2022-09-15T08:18:59.291Z,19.99
2022-09-15T08:21:28.410Z,20.00
2022-09-15T08:23:58.867Z,20.02
2022-09-15T08:26:29.091Z,20.05
2022-09-15T08:28:58.132Z,20.05
2022-09-15T08:31:26.374Z,20.07
2022-09-15T08:33:56.155Z,20.10
2022-09-15T08:36:28.097Z,20.13
2022-09-15T08:38:56.790Z,20.16
2022-09-15T08:41:35.516Z,20.19
2022-09-15T08:44:22.721Z,20.21
2022-09-15T08:47:06.836Z,20.25
2022-09-15T08:49:51.590Z,20.27
2022-09-15T08:52:28.277Z,20.30
2022-09-15T08:54:58.354Z,20.32
2022-09-15T08:57:26.426Z,20.34
2022-09-15T08:59:55.011Z,20.35
2022-09-15T09:02:44.339Z,20.35
2022-09-15T09:05:29.612Z,20.37
2022-09-15T09:08:45.817Z,20.40
2022-09-15T09:11:38.061Z,20.42
2022-09-15T09:14:20.285Z,20.43
2022-09-15T09:17:25.757Z,20.47
2022-09-15T09:20:11.106Z,20.53
2022-09-15T09:22:43.996Z,20.61
2022-09-15T09:25:27.284Z,20.68
2022-09-15T09:27:58.472Z,20.73
2022-09-15T09:30:31.161Z,20.78
2022-09-15T09:33:18.457Z,20.85
2022-09-15T09:35:51.571Z,20.95
2022-09-15T09:38:27.572Z,21.02
2022-09-15T09:40:59.981Z,21.07
2022-09-15T09:43:31.246Z,21.12
2022-09-15T09:45:59.378Z,21.17
2022-09-15T09:48:28.787Z,21.25
2022-09-15T09:50:56.867Z,21.36
2022-09-15T09:53:31.189Z,21.47
2022-09-15T09:56:24.113Z,21.56
2022-09-15T09:58:54.305Z,21.68
2022-09-15T10:01:25.445Z,21.89
2022-09-15T10:04:17.669Z,22.06
2022-09-15T10:06:46.700Z,22.22
2022-09-15T10:09:19.513Z,22.35
2022-09-15T10:12:00.248Z,22.48
2022-09-15T10:14:30.231Z,22.51
2022-09-15T10:17:19.669Z,22.53
2022-09-15T10:19:56.021Z,22.59
2022-09-15T10:22:23.695Z,22.65
2022-09-15T10:24:51.616Z,22.71
2022-09-15T10:27:34.601Z,22.79
2022-09-15T10:30:14.848Z,22.85
2022-09-15T10:32:43.324Z,22.92
2022-09-15T10:35:18.804Z,23.05
2022-09-15T10:38:11.909Z,23.20
2022-09-15T10:41:01.521Z,23.38
2022-09-15T10:43:46.929Z,23.53
2022-09-15T10:46:28.462Z,23.58
2022-09-15T10:49:30.096Z,23.61
2022-09-15T10:52:24.481Z,23.64
2022-09-15T10:55:48.882Z,23.70
2022-09-15T10:58:31.203Z,23.71
2022-09-15T11:01:23.452Z,23.70
2022-09-15T11:04:18.443Z,23.64
2022-09-15T11:07:05.477Z,23.58
2022-09-15T11:10:03.292Z,23.57
2022-09-15T11:12:54.412Z,23.59
2022-09-15T11:15:38.244Z,23.67
2022-09-15T11:18:15.239Z,23.78
2022-09-15T11:21:01.671Z,23.85
2022-09-15T11:23:32.892Z,23.92
2022-09-15T11:26:09.919Z,23.91
2022-09-15T11:28:51.133Z,23.89
2022-09-15T11:31:27.331Z,23.87
2022-09-15T11:34:15.718Z,23.84
2022-09-15T11:36:51.089Z,23.77
2022-09-15T11:39:19.567Z,23.69
2022-09-15T11:42:08.551Z,23.64
2022-09-15T11:44:42.950Z,23.66
2022-09-15T11:47:23.026Z,23.76
2022-09-15T11:50:03.012Z,23.96
2022-09-15T11:52:49.545Z,24.12
2022-09-15T11:55:27.125Z,24.29
2022-09-15T11:58:23.057Z,24.37
2022-09-15T12:01:00.844Z,24.44
2022-09-15T12:03:50.696Z,24.49
2022-09-15T12:06:45.599Z,24.51
2022-09-15T12:09:18.784Z,24.55
2022-09-15T12:11:49.230Z,24.58
2022-09-15T12:14:49.190Z,24.58
2022-09-15T12:17:21.846Z,24.54
2022-09-15T12:20:00.354Z,24.53
2022-09-15T12:22:35.121Z,24.61
2022-09-15T12:25:13.746Z,24.67
2022-09-15T12:27:41.811Z,24.77
2022-09-15T12:30:40.844Z,24.89
2022-09-15T12:33:42.689Z,25.05
2022-09-15T12:36:49.640Z,25.20
2022-09-15T12:39:37.463Z,25.42
2022-09-15T12:42:25.077Z,25.70
2022-09-15T12:44:57.715Z,25.83
2022-09-15T12:47:49.219Z,25.80
2022-09-15T12:50:17.091Z,25.70
2022-09-15T12:52:57.287Z,25.61
2022-09-15T12:55:29.746Z,25.50
2022-09-15T12:58:26.848Z,25.43
2022-09-15T13:01:26.356Z,25.37
2022-09-15T13:04:00.709Z,25.31
2022-09-15T13:06:34.213Z,25.27
2022-09-15T13:09:05.400Z,25.25
2022-09-15T13:11:34.832Z,25.23
2022-09-15T13:14:12.806Z,25.20
2022-09-15T13:16:40.726Z,25.21
2022-09-15T13:19:36.072Z,25.28
2022-09-15T13:22:12.501Z,25.43
2022-09-15T13:25:01.585Z,25.57
2022-09-15T13:27:37.886Z,25.67
2022-09-15T13:30:14.610Z,25.73
2022-09-15T13:33:04.401Z,25.63
2022-09-15T13:36:00.135Z,25.44
2022-09-15T13:38:49.341Z,25.28
2022-09-15T13:41:25.947Z,25.24
2022-09-15T13:44:15.561Z,25.20
2022-09-15T13:47:14.686Z,25.19
2022-09-15T13:50:19.529Z,25.18
2022-09-15T13:53:05.716Z,24.98
2022-09-15T13:55:43.171Z,24.77
2022-09-15T14:01:07.076Z,24.54
2022-09-15T14:04:05.260Z,24.49
2022-09-15T14:06:40.499Z,24.41
2022-09-15T14:09:26.790Z,24.27
2022-09-15T14:11:59.401Z,24.09
2022-09-15T14:14:27.264Z,23.96
2022-09-15T14:16:56.976Z,23.90
2022-09-15T14:19:25.064Z,23.91
2022-09-15T14:21:58.260Z,23.94
2022-09-15T14:24:30.152Z,23.96
2022-09-15T14:27:09.810Z,23.96
2022-09-15T14:29:42.789Z,23.93
2022-09-15T14:32:16.377Z,23.90
2022-09-15T14:37:24.406Z,23.88
2022-09-15T14:39:57.307Z,23.89
2022-09-15T14:42:32.553Z,23.91
2022-09-15T14:48:18.384Z,23.91
2022-09-15T14:51:00.620Z,23.91
2022-09-15T14:53:33.741Z,23.92
2022-09-15T14:56:17.838Z,23.95
2022-09-15T14:58:51.994Z,23.98
2022-09-15T15:01:23.400Z,23.96
2022-09-15T15:04:28.163Z,23.92
2022-09-15T15:07:22.819Z,23.87
2022-09-15T15:09:56.591Z,23.81
2022-09-15T15:12:27.872Z,23.77
2022-09-15T15:14:56.431Z,23.76
2022-09-15T15:17:35.943Z,23.75
2022-09-15T15:20:09.688Z,23.74
2022-09-15T15:22:38.848Z,23.71
2022-09-15T15:25:28.882Z,23.67
2022-09-15T15:27:58.481Z,23.63
2022-09-15T15:30:44.137Z,23.60
2022-09-15T15:33:28.143Z,23.55
2022-09-15T15:36:09.738Z,23.51
2022-09-15T15:38:47.243Z,23.47
2022-09-15T15:41:28.628Z,23.43
2022-09-15T15:44:27.890Z,23.39
2022-09-15T15:47:02.542Z,23.33
2022-09-15T15:49:32.724Z,23.28
2022-09-15T15:52:01.887Z,23.23
2022-09-15T15:54:29.909Z,23.20
2022-09-15T15:57:20.925Z,23.14
2022-09-15T15:59:48.806Z,23.08
2022-09-15T16:02:16.739Z,23.04
2022-09-15T16:04:44.635Z,23.00
2022-09-15T16:07:17.994Z,22.95
2022-09-15T16:09:47.039Z,22.91
2022-09-15T16:12:16.603Z,22.85
2022-09-15T16:14:44.571Z,22.79
2022-09-15T16:17:12.791Z,22.73
2022-09-15T16:19:40.727Z,22.67
2022-09-15T16:22:17.945Z,22.60
2022-09-15T16:24:46.788Z,22.54
2022-09-15T16:27:16.807Z,22.47
2022-09-15T16:29:45.536Z,22.36
2022-09-15T16:32:22.781Z,22.27
2022-09-15T16:34:52.718Z,22.20
2022-09-15T16:37:22.092Z,22.13
2022-09-15T16:39:52.210Z,22.06
2022-09-15T16:42:20.174Z,22.00
2022-09-15T16:44:48.071Z,21.93
2022-09-15T16:47:16.178Z,21.87
2022-09-15T16:49:44.045Z,21.79
2022-09-15T16:52:13.552Z,21.72
2022-09-15T16:54:41.856Z,21.67
2022-09-15T16:57:09.723Z,21.61
2022-09-15T16:59:37.531Z,21.57
2022-09-15T17:02:13.621Z,21.54
2022-09-15T17:04:41.518Z,21.51
2022-09-15T17:07:09.427Z,21.47
2022-09-15T17:09:37.311Z,21.44
2022-09-15T17:12:05.433Z,21.42
2022-09-15T17:14:33.382Z,21.38
2022-09-15T17:17:01.341Z,21.37
2022-09-15T17:19:29.253Z,21.34
2022-09-15T17:21:57.111Z,21.33
2022-09-15T17:24:24.979Z,21.29
2022-09-15T17:26:53.391Z,21.25
2022-09-15T17:29:21.724Z,21.21
2022-09-15T17:31:49.645Z,21.16
2022-09-15T17:34:17.694Z,21.09
2022-09-15T17:36:45.589Z,21.03
2022-09-15T17:39:13.495Z,20.97
2022-09-15T17:41:41.447Z,20.91
2022-09-15T17:44:11.398Z,20.86
2022-09-15T17:46:39.354Z,20.82
2022-09-15T17:49:07.256Z,20.77
2022-09-15T17:51:35.238Z,20.72
2022-09-15T17:54:03.495Z,20.68
2022-09-15T17:56:31.362Z,20.65
2022-09-15T17:58:59.239Z,20.62
2022-09-15T18:01:27.213Z,20.59
2022-09-15T18:03:55.187Z,20.55
2022-09-15T18:06:23.103Z,20.52
2022-09-15T18:08:51.227Z,20.51
2022-09-15T18:11:19.183Z,20.50
2022-09-15T18:13:47.024Z,20.49
2022-09-15T18:16:15.046Z,20.49
2022-09-15T18:18:43.382Z,20.51
2022-09-15T18:21:25.810Z,20.50
2022-09-15T18:23:53.701Z,20.47
2022-09-15T18:26:26.303Z,20.43
2022-09-15T18:28:55.211Z,20.40
2022-09-15T18:31:23.614Z,20.37
2022-09-15T18:33:51.552Z,20.36
2022-09-15T18:36:20.777Z,20.35
2022-09-15T18:38:48.678Z,20.35
2022-09-15T18:41:16.640Z,20.35
2022-09-15T18:43:48.862Z,20.33
2022-09-15T18:46:17.850Z,20.31
2022-09-15T18:48:45.797Z,20.28
2022-09-15T18:51:23.402Z,20.25
2022-09-15T18:53:54.380Z,20.22
2022-09-15T18:56:22.923Z,20.18
2022-09-15T18:58:53.998Z,20.15
2022-09-15T19:01:22.606Z,20.13
2022-09-15T19:03:50.798Z,20.11
2022-09-15T19:06:18.774Z,20.08
2022-09-15T19:08:46.791Z,20.07
2022-09-15T19:11:15.054Z,20.05
2022-09-15T19:13:43.198Z,20.05
2022-09-15T19:16:11.510Z,20.05
2022-09-15T19:18:39.435Z,20.06
2022-09-15T19:21:12.027Z,20.09
2022-09-15T19:23:40.151Z,20.12
2022-09-15T19:26:15.736Z,20.17
2022-09-15T19:28:44.963Z,20.24
2022-09-15T19:31:13.747Z,20.29
2022-09-15T19:33:42.198Z,20.32
2022-09-15T19:36:27.563Z,20.33
2022-09-15T19:38:57.713Z,20.34
2022-09-15T19:41:26.918Z,20.34
2022-09-15T19:43:56.599Z,20.32
2022-09-15T19:46:25.752Z,20.31
2022-09-15T19:48:54.155Z,20.24
2022-09-15T19:51:22.296Z,20.15
2022-09-15T19:53:55.014Z,20.06
2022-09-15T19:56:26.301Z,20.00
2022-09-15T19:58:56.474Z,19.98
2022-09-15T20:01:27.207Z,19.95
2022-09-15T20:03:57.008Z,19.93
2022-09-15T20:06:30.176Z,19.96
2022-09-15T20:09:00.480Z,20.01
2022-09-15T20:11:30.556Z,20.10
2022-09-15T20:13:59.168Z,20.15
2022-09-15T20:16:28.523Z,20.20
2022-09-15T20:18:56.797Z,20.26
2022-09-15T20:21:48.790Z,20.31
2022-09-15T20:24:17.002Z,20.33
2022-09-15T20:26:44.924Z,20.35
2022-09-15T20:29:13.265Z,20.37
2022-09-15T20:31:42.695Z,20.39
2022-09-15T20:34:10.743Z,20.40
2022-09-15T20:36:39.501Z,20.40
2022-09-15T20:39:10.931Z,20.37
2022-09-15T20:41:40.090Z,20.33
2022-09-15T20:44:10.956Z,20.29
2022-09-15T20:46:39.929Z,20.26
2022-09-15T20:49:09.085Z,20.25
2022-09-15T20:51:37.058Z,20.22
2022-09-15T20:54:05.841Z,20.18
2022-09-15T20:56:35.523Z,20.13
2022-09-15T20:59:05.964Z,20.07
2022-09-15T21:01:37.123Z,19.99
2022-09-15T21:04:08.468Z,19.93
2022-09-15T21:06:36.936Z,19.88
2022-09-15T21:09:06.463Z,19.82
2022-09-15T21:11:34.997Z,19.77
2022-09-15T21:14:03.368Z,19.75
2022-09-15T21:16:33.875Z,19.73
2022-09-15T21:19:02.019Z,19.71
2022-09-15T21:21:31.912Z,19.68
2022-09-15T21:24:03.946Z,19.64
2022-09-15T21:27:00.719Z,19.62
2022-09-15T21:29:29.556Z,19.61
2022-09-15T21:31:57.992Z,19.62
2022-09-15T21:34:26.412Z,19.63
2022-09-15T21:36:54.588Z,19.62
2022-09-15T21:39:23.149Z,19.59
2022-09-15T21:41:51.263Z,19.61
2022-09-15T21:44:19.282Z,19.63
2022-09-15T21:46:47.905Z,19.60
2022-09-15T21:49:18.073Z,19.60
2022-09-15T21:51:46.017Z,19.58
2022-09-15T21:54:14.340Z,19.57
2022-09-15T21:56:42.208Z,19.58
2022-09-15T21:59:10.715Z,19.57
2022-09-15T22:01:39.682Z,19.57
2022-09-15T22:04:09.019Z,19.56
2022-09-15T22:06:40.674Z,19.52
2022-09-15T22:09:13.104Z,19.47
2022-09-15T22:11:41.407Z,19.44
2022-09-15T22:14:10.429Z,19.42
2022-09-15T22:16:40.048Z,19.43
2022-09-15T22:19:10.274Z,19.44
2022-09-15T22:21:41.681Z,19.41
2022-09-15T22:24:12.072Z,19.38
2022-09-15T22:26:42.236Z,19.37
2022-09-15T22:29:11.241Z,19.34
2022-09-15T22:31:39.319Z,19.30
2022-09-15T22:34:07.283Z,19.27
2022-09-15T22:36:35.180Z,19.23
2022-09-15T22:39:05.527Z,19.20
2022-09-15T22:41:37.759Z,19.13
2022-09-15T22:44:07.314Z,19.06
2022-09-15T22:46:35.474Z,18.99
2022-09-15T22:49:03.485Z,18.92
2022-09-15T22:51:31.422Z,18.86
2022-09-15T22:54:03.010Z,18.77
2022-09-15T22:56:31.059Z,18.71
2022-09-15T22:58:59.412Z,18.69
2022-09-15T23:01:30.011Z,18.66
2022-09-15T23:04:01.131Z,18.65
2022-09-15T23:06:34.222Z,18.63
2022-09-15T23:09:06.357Z,18.62
2022-09-15T23:11:37.417Z,18.61
2022-09-15T23:14:07.685Z,18.60
2022-09-15T23:16:36.126Z,18.61
2022-09-15T23:19:05.358Z,18.61
2022-09-15T23:21:33.845Z,18.60
2022-09-15T23:24:01.971Z,18.58
2022-09-15T23:26:30.390Z,18.59
2022-09-15T23:28:58.176Z,18.61
2022-09-15T23:31:26.252Z,18.64
2022-09-15T23:33:54.202Z,18.67
2022-09-15T23:36:22.290Z,18.71
2022-09-15T23:38:50.275Z,18.76
2022-09-15T23:41:18.439Z,18.78
2022-09-15T23:43:46.761Z,18.79
2022-09-15T23:46:17.047Z,18.73
2022-09-15T23:48:45.077Z,18.69
2022-09-15T23:51:13.071Z,18.68
2022-09-15T23:53:41.096Z,18.69
2022-09-15T23:56:08.921Z,18.69
2022-09-15T23:58:37.365Z,18.66
